Time,TemperatureF,DewpointF,PressureIn,WindDirection,WindDirectionDegrees,WindSpeedMPH,WindSpeedGustMPH,Humidity,HourlyPrecipIn,Conditions,Clouds,dailyrainin,SoftwareType,DateUTC
2013-08-29 00:01:00,66.6,64.2,29.90,NNW,344,0.0,0.0,92,0.00,,---,0.00,VWS V14.01,2013-08-29 04:01:00,
2013-08-29 00:02:00,66.6,64.2,29.90,NNW,344,0.0,0.0,92,0.00,,---,0.00,VWS V14.01,2013-08-29 04:02:00,
2013-08-29 00:03:00,66.4,64.0,29.90,NNW,344,0.0,0.0,92,0.00,,---,0.00,VWS V14.01,2013-08-29 04:03:00,
2013-08-29 00:04:00,66.4,64.0,29.90,NNW,344,0.0,0.0,92,0.00,,---,0.00,VWS V14.01,2013-08-29 04:04:00,
2013-08-29 00:09:00,66.4,64.0,29.90,NNW,344,0.0,0.0,92,0.00,,---,0.00,VWS V14.01,2013-08-29 04:09:00,
2013-08-29 00:10:00,66.4,64.0,29.90,NNW,344,0.0,0.0,92,0.00,,---,0.00,VWS V14.01,2013-08-29 04:10:00,
2013-08-29 00:15:00,66.4,64.0,29.91,NNW,344,0.0,0.0,92,0.00,,---,0.00,VWS V14.01,2013-08-29 04:15:00,
2013-08-29 00:20:00,66.4,64.0,29.91,NNW,344,0.0,0.0,92,0.00,,---,0.00,VWS V14.01,2013-08-29 04:20:00,
2013-08-29 00:26:00,66.4,64.0,29.91,NNW,344,0.0,0.0,92,0.00,,---,0.00,VWS V14.01,2013-08-29 04:26:00,
2013-08-29 00:31:00,66.4,64.3,29.91,NNW,344,0.0,0.0,93,0.00,,---,0.00,VWS V14.01,2013-08-29 04:31:00,
2013-08-29 00:37:00,66.4,64.3,29.91,NNW,344,0.0,0.0,93,0.00,,---,0.00,VWS V14.01,2013-08-29 04:37:00,
2013-08-29 00:42:00,66.4,64.3,29.91,NNW,344,0.0,0.0,93,0.00,,---,0.00,VWS V14.01,2013-08-29 04:42:00,
2013-08-29 00:47:00,66.4,64.3,29.91,NNW,344,0.0,0.0,93,0.00,,---,0.00,VWS V14.01,2013-08-29 04:47:00,
2013-08-29 00:53:00,66.4,64.3,29.91,NNW,344,0.0,0.0,93,0.00,,---,0.00,VWS V14.01,2013-08-29 04:53:00,
2013-08-29 00:59:00,66.6,64.8,29.91,NNW,344,0.0,0.0,94,0.00,,---,0.00,VWS V14.01,2013-08-29 04:59:00,
2013-08-29 01:04:00,66.6,64.8,29.91,NNW,344,0.0,0.0,94,0.00,,---,0.00,VWS V14.01,2013-08-29 05:04:00,
2013-08-29 01:09:00,66.6,64.8,29.91,NNW,344,0.0,0.0,94,0.00,,---,0.00,VWS V14.01,2013-08-29 05:09:00,
2013-08-29 01:14:00,66.6,64.8,29.91,NNW,344,0.0,0.0,94,0.00,,---,0.00,VWS V14.01,2013-08-29 05:14:00,
2013-08-29 01:19:00,66.6,64.8,29.91,NNW,344,0.0,0.0,94,0.00,,---,0.00,VWS V14.01,2013-08-29 05:19:00,
2013-08-29 01:24:00,66.6,64.8,29.91,NNW,344,0.0,0.0,94,0.00,,---,0.00,VWS V14.01,2013-08-29 05:24:00,
2013-08-29 01:30:00,66.6,64.8,29.91,NNW,344,0.0,0.0,94,0.00,,---,0.00,VWS V14.01,2013-08-29 05:30:00,
2013-08-29 01:35:00,66.4,64.6,29.90,NNW,344,0.0,0.0,94,0.00,,---,0.00,VWS V14.01,2013-08-29 05:35:00,
2013-08-29 01:40:00,66.4,64.6,29.90,NNW,344,0.0,0.0,94,0.00,,---,0.00,VWS V14.01,2013-08-29 05:40:00,
2013-08-29 01:45:00,66.4,64.6,29.91,NNW,344,0.0,0.0,94,0.00,,---,0.00,VWS V14.01,2013-08-29 05:45:00,
2013-08-29 01:50:00,66.4,64.6,29.91,NNW,344,0.0,0.0,94,0.00,,---,0.00,VWS V14.01,2013-08-29 05:50:00,
2013-08-29 01:55:00,66.6,65.1,29.91,NNW,344,0.0,0.0,95,0.00,,---,0.00,VWS V14.01,2013-08-29 05:55:00,
2013-08-29 02:01:00,66.6,65.1,29.91,NNW,344,0.0,0.0,95,0.00,,---,0.00,VWS V14.01,2013-08-29 06:01:00,
2013-08-29 02:06:00,66.6,65.1,29.91,NNW,344,0.0,0.0,95,0.00,,---,0.00,VWS V14.01,2013-08-29 06:06:00,
2013-08-29 02:12:00,66.6,65.1,29.91,NNW,344,0.0,0.0,95,0.00,,---,0.00,VWS V14.01,2013-08-29 06:12:00,
2013-08-29 02:17:00,66.6,65.1,29.91,NNW,344,0.0,0.0,95,0.00,,---,0.00,VWS V14.01,2013-08-29 06:17:00,
2013-08-29 02:22:00,66.6,65.1,29.91,NNW,344,0.0,0.0,95,0.00,,---,0.00,VWS V14.01,2013-08-29 06:22:00,
2013-08-29 02:27:00,66.6,65.1,29.91,NNW,344,0.0,0.0,95,0.00,,---,0.00,VWS V14.01,2013-08-29 06:27:00,
2013-08-29 02:32:00,66.4,64.9,29.91,NNW,344,0.0,0.0,95,0.00,,---,0.00,VWS V14.01,2013-08-29 06:32:00,
2013-08-29 02:38:00,66.4,64.9,29.91,North,360,0.0,0.0,95,0.00,,---,0.00,VWS V14.01,2013-08-29 06:38:00,
2013-08-29 02:44:00,66.4,64.9,29.91,North,360,0.0,0.0,95,0.00,,---,0.00,VWS V14.01,2013-08-29 06:44:00,
2013-08-29 02:49:00,66.4,64.9,29.91,North,360,0.0,0.0,95,0.00,,---,0.00,VWS V14.01,2013-08-29 06:49:00,
2013-08-29 02:54:00,66.4,64.9,29.91,North,360,0.0,0.0,95,0.00,,---,0.00,VWS V14.01,2013-08-29 06:54:00,
2013-08-29 02:59:00,66.4,64.9,29.92,North,360,0.0,0.0,95,0.00,,---,0.00,VWS V14.01,2013-08-29 06:59:00,
2013-08-29 03:04:00,66.4,64.9,29.92,North,360,0.0,0.0,95,0.00,,---,0.00,VWS V14.01,2013-08-29 07:04:00,
2013-08-29 03:09:00,66.4,64.9,29.92,North,360,0.0,0.0,95,0.00,,---,0.00,VWS V14.01,2013-08-29 07:09:00,
2013-08-29 03:14:00,66.4,64.9,29.92,North,360,0.0,0.0,95,0.00,,---,0.00,VWS V14.01,2013-08-29 07:14:00,
2013-08-29 03:20:00,66.4,64.9,29.92,North,360,0.0,0.0,95,0.00,,---,0.00,VWS V14.01,2013-08-29 07:20:00,
2013-08-29 03:25:00,66.4,64.9,29.92,North,360,0.0,0.0,95,0.00,,---,0.00,VWS V14.01,2013-08-29 07:25:00,
2013-08-29 03:31:00,66.4,64.9,29.92,North,360,0.0,0.0,95,0.00,,---,0.00,VWS V14.01,2013-08-29 07:31:00,
2013-08-29 03:36:00,66.4,64.9,29.92,North,360,0.0,0.0,95,0.00,,---,0.00,VWS V14.01,2013-08-29 07:36:00,
2013-08-29 03:41:00,66.4,64.9,29.93,North,360,0.0,0.0,95,0.00,,---,0.00,VWS V14.01,2013-08-29 07:41:00,
2013-08-29 03:46:00,66.6,65.1,29.92,North,360,0.0,0.0,95,0.00,,---,0.00,VWS V14.01,2013-08-29 07:46:00,
2013-08-29 03:51:00,66.6,65.1,29.92,North,360,0.0,0.0,95,0.00,,---,0.00,VWS V14.01,2013-08-29 07:51:00,
2013-08-29 03:56:00,66.6,65.4,29.92,North,360,0.0,0.0,96,0.00,,---,0.00,VWS V14.01,2013-08-29 07:56:00,
2013-08-29 04:01:00,66.6,65.4,29.92,North,360,0.0,0.0,96,0.00,,---,0.00,VWS V14.01,2013-08-29 08:01:00,
2013-08-29 04:07:00,66.6,65.4,29.92,North,360,0.0,0.0,96,0.00,,---,0.00,VWS V14.01,2013-08-29 08:07:00,
2013-08-29 04:12:00,66.6,65.4,29.92,North,360,0.0,0.0,96,0.00,,---,0.00,VWS V14.01,2013-08-29 08:12:00,
2013-08-29 04:17:00,66.6,65.4,29.92,North,360,0.0,0.0,96,0.00,,---,0.00,VWS V14.01,2013-08-29 08:17:00,
2013-08-29 04:23:00,66.8,65.6,29.93,North,360,0.0,0.0,96,0.00,,---,0.00,VWS V14.01,2013-08-29 08:23:00,
2013-08-29 04:29:00,66.8,65.6,29.93,North,360,0.0,0.0,96,0.00,,---,0.00,VWS V14.01,2013-08-29 08:29:00,
2013-08-29 04:34:00,66.8,65.6,29.93,North,360,0.0,0.0,96,0.00,,---,0.00,VWS V14.01,2013-08-29 08:34:00,
2013-08-29 04:39:00,66.9,65.7,29.93,North,360,0.0,0.0,96,0.00,,---,0.00,VWS V14.01,2013-08-29 08:39:00,
2013-08-29 04:44:00,66.9,65.7,29.93,North,360,0.0,0.0,96,0.00,,---,0.00,VWS V14.01,2013-08-29 08:44:00,
2013-08-29 04:50:00,66.9,65.7,29.93,North,360,0.0,0.0,96,0.00,,---,0.00,VWS V14.01,2013-08-29 08:50:00,
2013-08-29 04:55:00,66.9,65.7,29.93,North,360,0.0,0.0,96,0.00,,---,0.00,VWS V14.01,2013-08-29 08:55:00,
2013-08-29 05:01:00,66.9,65.7,29.94,North,360,0.0,0.0,96,0.00,,---,0.00,VWS V14.01,2013-08-29 09:01:00,
2013-08-29 05:06:00,67.1,65.9,29.93,North,360,0.0,0.0,96,0.00,,---,0.00,VWS V14.01,2013-08-29 09:06:00,
2013-08-29 05:11:00,67.1,65.9,29.93,North,360,0.0,0.0,96,0.00,,---,0.00,VWS V14.01,2013-08-29 09:11:00,
2013-08-29 05:17:00,67.1,65.9,29.93,North,360,0.0,0.0,96,0.00,,---,0.00,VWS V14.01,2013-08-29 09:17:00,
2013-08-29 05:22:00,67.1,65.9,29.93,North,360,0.0,0.0,96,0.00,,---,0.00,VWS V14.01,2013-08-29 09:22:00,
2013-08-29 05:27:00,67.1,65.9,29.93,North,360,0.0,0.0,96,0.00,,---,0.00,VWS V14.01,2013-08-29 09:27:00,
2013-08-29 05:32:00,66.9,65.7,29.93,North,360,0.0,0.0,96,0.00,,---,0.00,VWS V14.01,2013-08-29 09:32:00,
2013-08-29 05:37:00,66.9,65.7,29.93,North,360,0.0,0.0,96,0.00,,---,0.00,VWS V14.01,2013-08-29 09:37:00,
2013-08-29 05:42:00,66.8,65.6,29.93,North,360,0.0,0.0,96,0.00,,---,0.00,VWS V14.01,2013-08-29 09:42:00,
2013-08-29 05:47:00,66.8,65.6,29.93,North,360,0.0,0.0,96,0.00,,---,0.00,VWS V14.01,2013-08-29 09:47:00,
2013-08-29 05:53:00,66.8,65.6,29.93,North,360,0.0,0.0,96,0.00,,---,0.00,VWS V14.01,2013-08-29 09:53:00,
2013-08-29 05:58:00,66.8,65.6,29.93,North,360,0.0,0.0,96,0.00,,---,0.00,VWS V14.01,2013-08-29 09:58:00,
2013-08-29 06:03:00,66.9,65.7,29.93,North,360,0.0,0.0,96,0.00,,---,0.00,VWS V14.01,2013-08-29 10:03:00,
2013-08-29 06:08:00,66.9,65.7,29.94,North,360,0.0,0.0,96,0.00,,---,0.00,VWS V14.01,2013-08-29 10:08:00,
2013-08-29 06:14:00,67.1,65.9,29.94,North,360,0.0,0.0,96,0.00,,---,0.00,VWS V14.01,2013-08-29 10:14:00,
2013-08-29 06:19:00,67.1,65.9,29.95,North,360,0.0,0.0,96,0.00,,---,0.00,VWS V14.01,2013-08-29 10:19:00,
2013-08-29 06:25:00,67.1,65.9,29.95,North,360,0.0,0.0,96,0.00,,---,0.00,VWS V14.01,2013-08-29 10:25:00,
2013-08-29 06:30:00,67.1,65.9,29.95,North,360,0.0,0.0,96,0.00,,---,0.00,VWS V14.01,2013-08-29 10:30:00,
2013-08-29 06:35:00,67.1,65.9,29.95,North,360,0.0,0.0,96,0.00,,---,0.00,VWS V14.01,2013-08-29 10:35:00,
2013-08-29 06:41:00,67.1,65.9,29.95,North,360,0.0,0.0,96,0.00,,---,0.00,VWS V14.01,2013-08-29 10:41:00,
2013-08-29 06:46:00,67.1,65.9,29.96,North,360,0.0,0.0,96,0.00,,---,0.00,VWS V14.01,2013-08-29 10:46:00,
2013-08-29 06:51:00,67.3,66.1,29.96,North,360,0.0,0.0,96,0.00,,---,0.00,VWS V14.01,2013-08-29 10:51:00,
2013-08-29 06:57:00,67.3,66.1,29.97,North,360,0.0,0.0,96,0.00,,---,0.00,VWS V14.01,2013-08-29 10:57:00,
2013-08-29 07:02:00,67.3,66.1,29.97,North,360,0.0,0.0,96,0.00,,---,0.00,VWS V14.01,2013-08-29 11:02:00,
2013-08-29 07:08:00,67.3,66.1,29.97,North,360,0.0,0.0,96,0.00,,---,0.00,VWS V14.01,2013-08-29 11:08:00,
2013-08-29 07:13:00,67.4,66.2,29.97,North,360,0.0,0.0,96,0.00,,---,0.00,VWS V14.01,2013-08-29 11:13:00,
2013-08-29 07:18:00,67.4,66.2,29.97,North,360,0.0,0.0,96,0.00,,---,0.00,VWS V14.01,2013-08-29 11:18:00,
2013-08-29 07:23:00,67.4,66.2,29.97,North,360,0.0,0.0,96,0.00,,---,0.00,VWS V14.01,2013-08-29 11:23:00,
2013-08-29 07:28:00,67.6,66.4,29.97,North,360,0.0,0.0,96,0.00,,---,0.00,VWS V14.01,2013-08-29 11:28:00,
2013-08-29 07:34:00,67.6,66.4,29.98,North,360,0.0,0.0,96,0.00,,---,0.00,VWS V14.01,2013-08-29 11:34:00,
2013-08-29 07:39:00,67.8,66.6,29.98,North,360,0.0,0.0,96,0.00,,---,0.00,VWS V14.01,2013-08-29 11:39:00,
2013-08-29 07:44:00,67.8,66.6,29.98,North,360,0.0,0.0,96,0.00,,---,0.00,VWS V14.01,2013-08-29 11:44:00,
2013-08-29 07:50:00,67.9,66.7,29.98,North,360,0.0,0.0,96,0.00,,---,0.00,VWS V14.01,2013-08-29 11:50:00,
2013-08-29 07:55:00,67.9,66.7,29.98,North,360,0.0,0.0,96,0.00,,---,0.00,VWS V14.01,2013-08-29 11:55:00,
2013-08-29 08:00:00,68.1,66.9,29.98,North,360,0.0,0.0,96,0.00,,---,0.00,VWS V14.01,2013-08-29 12:00:00,
2013-08-29 08:05:00,68.1,66.9,29.99,North,360,0.0,1.0,96,0.00,,---,0.00,VWS V14.01,2013-08-29 12:05:00,
2013-08-29 08:10:00,68.1,66.9,29.99,East,90,0.0,0.0,96,0.00,,---,0.00,VWS V14.01,2013-08-29 12:10:00,
2013-08-29 08:15:00,68.1,66.9,29.99,East,79,0.0,0.0,96,0.00,,---,0.00,VWS V14.01,2013-08-29 12:15:00,
2013-08-29 08:20:00,67.9,66.7,29.99,East,79,0.0,0.0,96,0.00,,---,0.00,VWS V14.01,2013-08-29 12:20:00,
2013-08-29 08:25:00,67.8,66.6,29.99,ENE,73,0.0,0.0,96,0.00,,---,0.00,VWS V14.01,2013-08-29 12:25:00,
2013-08-29 08:31:00,67.6,66.4,30.00,West,278,0.0,0.0,96,0.00,,---,0.00,VWS V14.01,2013-08-29 12:31:00,
2013-08-29 08:36:00,67.3,65.8,30.00,WNW,296,0.0,0.0,95,0.00,,---,0.00,VWS V14.01,2013-08-29 12:36:00,
2013-08-29 08:41:00,67.3,65.8,30.00,WNW,296,0.0,0.0,95,0.00,,---,0.00,VWS V14.01,2013-08-29 12:41:00,
2013-08-29 08:46:00,67.4,65.6,30.00,South,188,0.0,2.0,94,0.00,,---,0.00,VWS V14.01,2013-08-29 12:46:00,
2013-08-29 08:51:00,67.6,65.8,30.00,SSW,194,0.0,0.0,94,0.00,,---,0.00,VWS V14.01,2013-08-29 12:51:00,
2013-08-29 08:56:00,67.8,65.7,30.01,SSE,167,1.0,1.0,93,0.00,,---,0.00,VWS V14.01,2013-08-29 12:56:00,
2013-08-29 09:01:00,67.9,65.5,30.00,NE,40,0.0,1.0,92,0.00,,---,0.00,VWS V14.01,2013-08-29 13:01:00,
2013-08-29 09:06:00,68.1,65.4,30.00,NW,324,0.0,0.0,91,0.00,,---,0.00,VWS V14.01,2013-08-29 13:06:00,
2013-08-29 09:11:00,68.4,65.7,30.00,South,180,0.0,1.0,91,0.00,,---,0.00,VWS V14.01,2013-08-29 13:11:00,
2013-08-29 09:16:00,68.4,64.7,30.00,East,97,0.0,1.0,88,0.00,,---,0.00,VWS V14.01,2013-08-29 13:16:00,
2013-08-29 09:21:00,68.6,64.2,30.00,SSW,202,0.0,0.0,86,0.00,,---,0.00,VWS V14.01,2013-08-29 13:21:00,
2013-08-29 09:26:00,68.8,64.8,30.01,SSW,202,0.0,0.0,87,0.00,,---,0.00,VWS V14.01,2013-08-29 13:26:00,
2013-08-29 09:31:00,68.9,64.2,30.01,North,355,0.0,0.0,85,0.00,,---,0.00,VWS V14.01,2013-08-29 13:31:00,
2013-08-29 09:36:00,69.1,64.7,30.01,North,355,0.0,0.0,86,0.00,,---,0.00,VWS V14.01,2013-08-29 13:36:00,
2013-08-29 09:42:00,69.1,64.4,30.01,ESE,109,0.0,0.0,85,0.00,,---,0.00,VWS V14.01,2013-08-29 13:42:00,
2013-08-29 09:47:00,69.3,64.3,30.01,West,276,0.0,0.0,84,0.00,,---,0.00,VWS V14.01,2013-08-29 13:47:00,
2013-08-29 09:52:00,69.4,64.0,30.01,West,277,0.0,0.0,83,0.00,,---,0.00,VWS V14.01,2013-08-29 13:52:00,
2013-08-29 09:57:00,69.6,63.9,30.00,NW,309,0.0,0.0,82,0.00,,---,0.00,VWS V14.01,2013-08-29 13:57:00,
2013-08-29 10:03:00,69.6,63.5,30.01,ENE,57,0.0,2.0,81,0.00,,---,0.00,VWS V14.01,2013-08-29 14:03:00,
2013-08-29 10:08:00,69.8,63.7,30.01,SSE,162,0.0,0.0,81,0.00,,---,0.00,VWS V14.01,2013-08-29 14:08:00,
2013-08-29 10:13:00,70.1,63.7,30.01,SSE,157,0.0,0.0,80,0.00,,---,0.00,VWS V14.01,2013-08-29 14:13:00,
2013-08-29 10:18:00,70.4,63.9,30.00,NW,323,0.0,0.0,80,0.00,,---,0.00,VWS V14.01,2013-08-29 14:18:00,
2013-08-29 10:23:00,71.1,64.3,30.01,NNW,331,0.0,1.0,79,0.00,,---,0.00,VWS V14.01,2013-08-29 14:23:00,
2013-08-29 10:28:00,71.6,64.4,30.01,ENE,60,0.0,0.0,78,0.00,,---,0.00,VWS V14.01,2013-08-29 14:28:00,
2013-08-29 10:33:00,72.0,64.4,30.01,NNW,338,0.0,0.0,77,0.00,,---,0.00,VWS V14.01,2013-08-29 14:33:00,
2013-08-29 10:38:00,72.1,64.5,30.01,NNW,338,0.0,0.0,77,0.00,,---,0.00,VWS V14.01,2013-08-29 14:38:00,
2013-08-29 10:44:00,72.1,64.5,30.01,NNW,338,0.0,0.0,77,0.00,,---,0.00,VWS V14.01,2013-08-29 14:44:00,
2013-08-29 10:49:00,72.1,64.5,30.01,NNW,338,0.0,0.0,77,0.00,,---,0.00,VWS V14.01,2013-08-29 14:49:00,
2013-08-29 10:54:00,72.1,64.5,30.01,NNE,14,0.0,0.0,77,0.00,,---,0.00,VWS V14.01,2013-08-29 14:54:00,
2013-08-29 11:00:00,72.0,64.4,30.02,NNE,13,0.0,0.0,77,0.00,,---,0.00,VWS V14.01,2013-08-29 15:00:00,
2013-08-29 11:05:00,72.0,64.4,30.02,North,360,0.0,0.0,77,0.00,,---,0.00,VWS V14.01,2013-08-29 15:05:00,
2013-08-29 11:10:00,71.8,64.2,30.01,NNW,339,0.0,0.0,77,0.00,,---,0.00,VWS V14.01,2013-08-29 15:10:00,
2013-08-29 11:16:00,71.8,64.2,30.01,NNW,346,0.0,0.0,77,0.00,,---,0.00,VWS V14.01,2013-08-29 15:16:00,
2013-08-29 11:21:00,71.8,64.6,30.01,NNW,344,0.0,1.0,78,0.00,,---,0.00,VWS V14.01,2013-08-29 15:21:00,
2013-08-29 11:27:00,71.8,64.9,30.01,NNW,329,0.0,1.0,79,0.00,,---,0.00,VWS V14.01,2013-08-29 15:27:00,
2013-08-29 11:32:00,71.8,64.6,30.01,NNW,329,0.0,0.0,78,0.00,,---,0.00,VWS V14.01,2013-08-29 15:32:00,
2013-08-29 11:38:00,71.8,64.6,30.01,NNW,329,0.0,0.0,78,0.00,,---,0.00,VWS V14.01,2013-08-29 15:38:00,
2013-08-29 11:43:00,71.6,64.0,30.01,East,82,0.0,1.0,77,0.00,,---,0.00,VWS V14.01,2013-08-29 15:43:00,
2013-08-29 11:49:00,71.6,64.8,30.01,East,101,0.0,0.0,79,0.00,,---,0.00,VWS V14.01,2013-08-29 15:49:00,
2013-08-29 11:54:00,71.8,64.2,30.01,North,355,0.0,0.0,77,0.00,,---,0.00,VWS V14.01,2013-08-29 15:54:00,
2013-08-29 11:59:00,72.0,64.4,30.01,North,5,0.0,0.0,77,0.00,,---,0.00,VWS V14.01,2013-08-29 15:59:00,
2013-08-29 12:04:00,72.3,64.7,30.01,ENE,62,0.0,1.0,77,0.00,,---,0.00,VWS V14.01,2013-08-29 16:04:00,
2013-08-29 12:09:00,72.5,63.8,30.01,NE,36,0.0,0.0,74,0.00,,---,0.00,VWS V14.01,2013-08-29 16:09:00,
2013-08-29 12:14:00,72.8,64.4,30.01,SSE,147,0.0,0.0,75,0.00,,---,0.00,VWS V14.01,2013-08-29 16:14:00,
2013-08-29 12:19:00,73.3,64.1,30.01,North,350,0.0,1.0,73,0.00,,---,0.00,VWS V14.01,2013-08-29 16:19:00,
2013-08-29 12:25:00,73.3,64.1,30.02,NNW,333,0.0,3.0,73,0.00,,---,0.00,VWS V14.01,2013-08-29 16:25:00,
2013-08-29 12:30:00,73.2,64.4,30.01,NNW,333,0.0,0.0,74,0.00,,---,0.00,VWS V14.01,2013-08-29 16:30:00,
2013-08-29 12:35:00,73.0,64.2,30.01,NNW,329,0.0,0.0,74,0.00,,---,0.00,VWS V14.01,2013-08-29 16:35:00,
2013-08-29 12:40:00,73.0,64.6,30.01,NNE,22,0.0,0.0,75,0.00,,---,0.00,VWS V14.01,2013-08-29 16:40:00,
2013-08-29 12:45:00,73.2,64.4,30.01,NNW,333,0.0,0.0,74,0.00,,---,0.00,VWS V14.01,2013-08-29 16:45:00,
2013-08-29 12:50:00,73.3,63.7,30.01,NNW,329,0.0,1.0,72,0.00,,---,0.00,VWS V14.01,2013-08-29 16:50:00,
2013-08-29 12:55:00,73.3,63.7,30.01,NNW,332,0.0,1.0,72,0.00,,---,0.00,VWS V14.01,2013-08-29 16:55:00,
2013-08-29 13:00:00,73.5,63.9,30.01,NNW,332,0.0,0.0,72,0.00,,---,0.00,VWS V14.01,2013-08-29 17:00:00,
2013-08-29 13:06:00,73.3,63.7,30.01,NW,319,0.0,0.0,72,0.00,,---,0.00,VWS V14.01,2013-08-29 17:06:00,
2013-08-29 13:11:00,73.0,63.8,30.01,SSE,167,0.0,0.0,73,0.00,,---,0.00,VWS V14.01,2013-08-29 17:11:00,
2013-08-29 13:16:00,73.0,63.8,30.01,SSW,200,0.0,0.0,73,0.00,,---,0.00,VWS V14.01,2013-08-29 17:16:00,
2013-08-29 13:21:00,73.0,64.2,30.01,North,5,0.0,0.0,74,0.00,,---,0.00,VWS V14.01,2013-08-29 17:21:00,
2013-08-29 13:26:00,73.2,64.0,30.01,North,5,0.0,0.0,73,0.00,,---,0.00,VWS V14.01,2013-08-29 17:26:00,
2013-08-29 13:31:00,73.3,64.1,30.01,NNW,331,0.0,0.0,73,0.00,,---,0.00,VWS V14.01,2013-08-29 17:31:00,
2013-08-29 13:36:00,73.7,64.5,30.01,NNW,348,0.0,0.0,73,0.00,,---,0.00,VWS V14.01,2013-08-29 17:36:00,
2013-08-29 13:41:00,74.2,64.2,30.00,NNW,348,0.0,0.0,71,0.00,,---,0.00,VWS V14.01,2013-08-29 17:41:00,
2013-08-29 13:46:00,74.9,63.2,30.00,NNW,327,0.0,1.0,67,0.00,,---,0.00,VWS V14.01,2013-08-29 17:46:00,
2013-08-29 13:51:00,75.4,64.1,30.01,NNW,327,0.0,0.0,68,0.00,,---,0.00,VWS V14.01,2013-08-29 17:51:00,
2013-08-29 13:56:00,75.6,63.9,30.01,NNW,327,0.0,0.0,67,0.00,,---,0.00,VWS V14.01,2013-08-29 17:56:00,
2013-08-29 14:01:00,76.0,63.4,30.01,NNE,17,0.0,0.0,65,0.00,,---,0.00,VWS V14.01,2013-08-29 18:01:00,
2013-08-29 14:06:00,76.3,63.2,30.00,NNW,333,0.0,1.0,64,0.00,,---,0.00,VWS V14.01,2013-08-29 18:06:00,
2013-08-29 14:11:00,76.3,63.7,30.00,NNW,333,0.0,0.0,65,0.00,,---,0.00,VWS V14.01,2013-08-29 18:11:00,
2013-08-29 14:16:00,76.3,63.2,30.00,NNW,333,0.0,1.0,64,0.00,,---,0.00,VWS V14.01,2013-08-29 18:16:00,
2013-08-29 14:21:00,76.0,63.0,30.00,NNW,333,0.0,0.0,64,0.00,,---,0.00,VWS V14.01,2013-08-29 18:21:00,
2013-08-29 14:26:00,75.8,62.8,30.00,NNW,331,0.0,0.0,64,0.00,,---,0.00,VWS V14.01,2013-08-29 18:26:00,
2013-08-29 14:31:00,75.8,63.2,30.00,NNE,13,0.0,1.0,65,0.00,,---,0.00,VWS V14.01,2013-08-29 18:31:00,
2013-08-29 14:37:00,75.6,63.5,30.00,NNE,13,0.0,0.0,66,0.00,,---,0.00,VWS V14.01,2013-08-29 18:37:00,
2013-08-29 14:42:00,75.8,63.2,30.00,NW,326,0.0,0.0,65,0.00,,---,0.00,VWS V14.01,2013-08-29 18:42:00,
2013-08-29 14:47:00,75.8,62.8,29.99,NW,326,0.0,0.0,64,0.00,,---,0.00,VWS V14.01,2013-08-29 18:47:00,
2013-08-29 14:52:00,75.8,63.6,30.00,NW,326,0.0,0.0,66,0.00,,---,0.00,VWS V14.01,2013-08-29 18:52:00,
2013-08-29 14:57:00,75.8,63.6,30.00,North,5,0.0,2.0,66,0.00,,---,0.00,VWS V14.01,2013-08-29 18:57:00,
2013-08-29 15:03:00,75.6,63.9,29.99,North,5,0.0,0.0,67,0.00,,---,0.00,VWS V14.01,2013-08-29 19:03:00,
2013-08-29 15:08:00,75.6,64.3,29.99,North,5,0.0,0.0,68,0.00,,---,0.00,VWS V14.01,2013-08-29 19:08:00,
2013-08-29 15:13:00,75.6,63.5,29.99,North,5,0.0,0.0,66,0.00,,---,0.00,VWS V14.01,2013-08-29 19:13:00,
2013-08-29 15:18:00,75.6,63.9,29.99,North,5,0.0,0.0,67,0.00,,---,0.00,VWS V14.01,2013-08-29 19:18:00,
2013-08-29 15:23:00,75.8,64.5,29.99,North,5,0.0,0.0,68,0.00,,---,0.00,VWS V14.01,2013-08-29 19:23:00,
2013-08-29 15:28:00,75.8,63.6,29.99,North,5,0.0,0.0,66,0.00,,---,0.00,VWS V14.01,2013-08-29 19:28:00,
2013-08-29 15:33:00,75.8,64.5,29.99,North,5,0.0,0.0,68,0.00,,---,0.00,VWS V14.01,2013-08-29 19:33:00,
2013-08-29 15:38:00,76.0,63.8,29.99,North,5,0.0,0.0,66,0.00,,---,0.00,VWS V14.01,2013-08-29 19:38:00,
2013-08-29 15:43:00,76.0,64.3,29.99,North,5,0.0,0.0,67,0.00,,---,0.00,VWS V14.01,2013-08-29 19:43:00,
2013-08-29 15:48:00,76.0,64.3,29.99,North,5,0.0,0.0,67,0.00,,---,0.00,VWS V14.01,2013-08-29 19:48:00,
2013-08-29 15:53:00,75.8,63.6,29.99,North,5,0.0,0.0,66,0.00,,---,0.00,VWS V14.01,2013-08-29 19:53:00,
2013-08-29 15:58:00,75.8,64.5,29.99,North,5,0.0,0.0,68,0.00,,---,0.00,VWS V14.01,2013-08-29 19:58:00,
2013-08-29 16:03:00,75.8,63.6,29.99,North,5,0.0,0.0,66,0.00,,---,0.00,VWS V14.01,2013-08-29 20:03:00,
2013-08-29 16:08:00,75.8,64.9,29.99,North,5,0.0,0.0,69,0.00,,---,0.00,VWS V14.01,2013-08-29 20:08:00,
2013-08-29 16:13:00,76.0,63.8,29.99,North,355,0.0,0.0,66,0.00,,---,0.00,VWS V14.01,2013-08-29 20:13:00,
2013-08-29 16:18:00,76.0,63.4,29.99,North,355,0.0,0.0,65,0.00,,---,0.00,VWS V14.01,2013-08-29 20:18:00,
2013-08-29 16:23:00,76.1,63.5,29.99,North,355,0.0,0.0,65,0.00,,---,0.00,VWS V14.01,2013-08-29 20:23:00,
2013-08-29 16:29:00,76.8,63.7,29.99,ESE,105,0.0,1.0,64,0.00,,---,0.00,VWS V14.01,2013-08-29 20:29:00,
2013-08-29 16:34:00,77.6,64.5,29.99,East,92,0.0,0.0,64,0.00,,---,0.00,VWS V14.01,2013-08-29 20:34:00,
2013-08-29 16:39:00,77.9,63.8,29.99,NNW,338,0.0,0.0,62,0.00,,---,0.00,VWS V14.01,2013-08-29 20:39:00,
2013-08-29 16:44:00,77.7,64.6,29.99,NNW,338,0.0,0.0,64,0.00,,---,0.00,VWS V14.01,2013-08-29 20:44:00,
2013-08-29 16:49:00,77.7,64.1,29.99,NNW,334,0.0,0.0,63,0.00,,---,0.00,VWS V14.01,2013-08-29 20:49:00,
2013-08-29 16:54:00,77.6,64.5,29.99,SE,134,0.0,0.0,64,0.00,,---,0.00,VWS V14.01,2013-08-29 20:54:00,
2013-08-29 16:59:00,77.2,64.5,29.99,SE,134,0.0,0.0,65,0.00,,---,0.00,VWS V14.01,2013-08-29 20:59:00,
2013-08-29 17:04:00,76.7,64.1,29.99,SE,134,0.0,0.0,65,0.00,,---,0.00,VWS V14.01,2013-08-29 21:04:00,
2013-08-29 17:09:00,76.1,63.9,29.99,SE,134,0.0,0.0,66,0.00,,---,0.00,VWS V14.01,2013-08-29 21:09:00,
2013-08-29 17:14:00,76.0,64.7,29.99,WSW,250,0.0,0.0,68,0.00,,---,0.00,VWS V14.01,2013-08-29 21:14:00,
2013-08-29 17:19:00,76.0,64.3,29.99,WSW,250,0.0,0.0,67,0.00,,---,0.00,VWS V14.01,2013-08-29 21:19:00,
2013-08-29 17:24:00,75.8,64.5,29.99,WSW,237,0.0,1.0,68,0.00,,---,0.00,VWS V14.01,2013-08-29 21:24:00,
2013-08-29 17:29:00,75.6,64.3,29.99,SW,224,0.0,0.0,68,0.00,,---,0.00,VWS V14.01,2013-08-29 21:29:00,
2013-08-29 17:34:00,75.3,64.4,29.99,SW,224,0.0,0.0,69,0.00,,---,0.00,VWS V14.01,2013-08-29 21:34:00,
2013-08-29 17:39:00,75.3,64.0,29.99,ESE,111,0.0,1.0,68,0.00,,---,0.00,VWS V14.01,2013-08-29 21:39:00,
2013-08-29 17:44:00,75.1,64.7,29.99,ESE,111,0.0,0.0,70,0.00,,---,0.00,VWS V14.01,2013-08-29 21:44:00,
2013-08-29 17:49:00,74.9,64.5,29.99,ESE,111,0.0,0.0,70,0.00,,---,0.00,VWS V14.01,2013-08-29 21:49:00,
2013-08-29 17:54:00,74.9,64.9,29.99,ESE,111,0.0,0.0,71,0.00,,---,0.00,VWS V14.01,2013-08-29 21:54:00,
2013-08-29 17:59:00,74.6,64.6,29.99,ESE,111,0.0,0.0,71,0.00,,---,0.00,VWS V14.01,2013-08-29 21:59:00,
2013-08-29 18:04:00,74.4,64.4,29.99,ESE,111,0.0,0.0,71,0.00,,---,0.00,VWS V14.01,2013-08-29 22:04:00,
2013-08-29 18:09:00,74.0,64.4,30.00,ESE,111,0.0,0.0,72,0.00,,---,0.00,VWS V14.01,2013-08-29 22:09:00,
2013-08-29 18:15:00,73.9,64.7,29.99,ESE,111,0.0,0.0,73,0.00,,---,0.00,VWS V14.01,2013-08-29 22:15:00,
2013-08-29 18:20:00,73.7,64.5,29.99,ESE,111,0.0,0.0,73,0.00,,---,0.00,VWS V14.01,2013-08-29 22:20:00,
2013-08-29 18:25:00,73.7,64.9,29.99,ESE,111,0.0,0.0,74,0.00,,---,0.00,VWS V14.01,2013-08-29 22:25:00,
2013-08-29 18:31:00,73.7,64.9,29.99,ESE,111,0.0,0.0,74,0.00,,---,0.00,VWS V14.01,2013-08-29 22:31:00,
2013-08-29 18:36:00,73.5,64.3,30.00,ESE,111,0.0,0.0,73,0.00,,---,0.00,VWS V14.01,2013-08-29 22:36:00,
2013-08-29 18:41:00,73.3,64.5,30.00,ESE,111,0.0,0.0,74,0.00,,---,0.00,VWS V14.01,2013-08-29 22:41:00,
2013-08-29 18:46:00,73.2,64.8,30.00,ESE,111,0.0,0.0,75,0.00,,---,0.00,VWS V14.01,2013-08-29 22:46:00,
2013-08-29 18:52:00,73.0,64.6,30.00,ESE,111,0.0,0.0,75,0.00,,---,0.00,VWS V14.01,2013-08-29 22:52:00,
2013-08-29 18:58:00,72.8,64.8,30.00,ESE,111,0.0,0.0,76,0.00,,---,0.00,VWS V14.01,2013-08-29 22:58:00,
2013-08-29 19:03:00,72.7,64.3,30.00,ESE,111,0.0,0.0,75,0.00,,---,0.00,VWS V14.01,2013-08-29 23:03:00,
2013-08-29 19:08:00,72.5,64.1,30.01,ESE,111,0.0,0.0,75,0.00,,---,0.00,VWS V14.01,2013-08-29 23:08:00,
2013-08-29 19:14:00,72.3,64.3,30.01,ESE,111,0.0,0.0,76,0.00,,---,0.00,VWS V14.01,2013-08-29 23:14:00,
2013-08-29 19:19:00,72.3,64.3,30.01,ESE,111,0.0,0.0,76,0.00,,---,0.00,VWS V14.01,2013-08-29 23:19:00,
2013-08-29 19:24:00,72.1,64.5,30.01,ESE,111,0.0,0.0,77,0.00,,---,0.00,VWS V14.01,2013-08-29 23:24:00,
2013-08-29 19:29:00,71.8,64.2,30.01,ESE,111,0.0,0.0,77,0.00,,---,0.00,VWS V14.01,2013-08-29 23:29:00,
2013-08-29 19:34:00,71.6,64.0,30.01,ESE,111,0.0,0.0,77,0.00,,---,0.00,VWS V14.01,2013-08-29 23:34:00,
2013-08-29 19:40:00,71.5,63.9,30.01,ESE,111,0.0,0.0,77,0.00,,---,0.00,VWS V14.01,2013-08-29 23:40:00,
2013-08-29 19:45:00,71.5,64.3,30.01,ESE,111,0.0,0.0,78,0.00,,---,0.00,VWS V14.01,2013-08-29 23:45:00,
2013-08-29 19:51:00,71.3,64.5,30.01,ESE,111,0.0,0.0,79,0.00,,---,0.00,VWS V14.01,2013-08-29 23:51:00,
2013-08-29 19:56:00,71.1,64.3,30.01,ESE,111,0.0,0.0,79,0.00,,---,0.00,VWS V14.01,2013-08-29 23:56:00,
2013-08-29 20:01:00,71.1,64.3,30.01,ESE,111,0.0,0.0,79,0.00,,---,0.00,VWS V14.01,2013-08-30 00:01:00,
2013-08-29 20:06:00,70.9,64.1,30.01,ESE,111,0.0,0.0,79,0.00,,---,0.00,VWS V14.01,2013-08-30 00:06:00,
2013-08-29 20:11:00,70.9,64.1,30.01,ESE,111,0.0,0.0,79,0.00,,---,0.00,VWS V14.01,2013-08-30 00:11:00,
2013-08-29 20:16:00,70.8,64.3,30.01,ESE,111,0.0,0.0,80,0.00,,---,0.00,VWS V14.01,2013-08-30 00:16:00,
2013-08-29 20:22:00,70.6,64.1,30.01,ESE,111,0.0,0.0,80,0.00,,---,0.00,VWS V14.01,2013-08-30 00:22:00,
2013-08-29 20:28:00,70.4,64.3,30.01,ESE,111,0.0,0.0,81,0.00,,---,0.00,VWS V14.01,2013-08-30 00:28:00,
2013-08-29 20:33:00,70.3,64.2,30.02,ESE,111,0.0,0.0,81,0.00,,---,0.00,VWS V14.01,2013-08-30 00:33:00,
2013-08-29 20:38:00,70.3,64.6,30.02,ESE,111,0.0,0.0,82,0.00,,---,0.00,VWS V14.01,2013-08-30 00:38:00,
2013-08-29 20:43:00,69.9,64.2,30.02,ESE,107,0.0,0.0,82,0.00,,---,0.00,VWS V14.01,2013-08-30 00:43:00,
2013-08-29 20:48:00,69.8,64.8,30.02,ESE,107,0.0,0.0,84,0.00,,---,0.00,VWS V14.01,2013-08-30 00:48:00,
2013-08-29 20:54:00,69.4,64.0,30.02,ESE,107,0.0,0.0,83,0.00,,---,0.00,VWS V14.01,2013-08-30 00:54:00,
2013-08-29 20:59:00,69.3,63.9,30.02,ESE,107,0.0,0.0,83,0.00,,---,0.00,VWS V14.01,2013-08-30 00:59:00,
2013-08-29 21:04:00,69.1,63.7,30.02,ESE,107,0.0,0.0,83,0.00,,---,0.00,VWS V14.01,2013-08-30 01:04:00,
2013-08-29 21:09:00,69.1,63.7,30.02,ESE,107,0.0,0.0,83,0.00,,---,0.00,VWS V14.01,2013-08-30 01:09:00,
2013-08-29 21:14:00,69.1,64.1,30.02,ESE,107,0.0,0.0,84,0.00,,---,0.00,VWS V14.01,2013-08-30 01:14:00,
2013-08-29 21:19:00,69.1,64.1,30.03,ESE,107,0.0,0.0,84,0.00,,---,0.00,VWS V14.01,2013-08-30 01:19:00,
2013-08-29 21:24:00,68.9,63.9,30.03,ESE,107,0.0,0.0,84,0.00,,---,0.00,VWS V14.01,2013-08-30 01:24:00,
2013-08-29 21:30:00,68.9,63.9,30.03,ESE,107,0.0,0.0,84,0.00,,---,0.00,VWS V14.01,2013-08-30 01:30:00,
2013-08-29 21:35:00,68.8,63.8,30.02,ESE,107,0.0,0.0,84,0.00,,---,0.00,VWS V14.01,2013-08-30 01:35:00,
2013-08-29 21:40:00,68.6,63.2,30.03,ESE,107,0.0,0.0,83,0.00,,---,0.00,VWS V14.01,2013-08-30 01:40:00,
2013-08-29 21:45:00,68.6,63.2,30.03,ESE,107,0.0,0.0,83,0.00,,---,0.00,VWS V14.01,2013-08-30 01:45:00,
2013-08-29 21:50:00,68.4,62.7,30.03,ESE,107,0.0,0.0,82,0.00,,---,0.00,VWS V14.01,2013-08-30 01:50:00,
2013-08-29 21:55:00,68.3,62.6,30.03,ESE,105,0.0,0.0,82,0.00,,---,0.00,VWS V14.01,2013-08-30 01:55:00,
2013-08-29 22:00:00,68.1,62.4,30.03,ESE,105,0.0,0.0,82,0.00,,---,0.00,VWS V14.01,2013-08-30 02:00:00,
2013-08-29 22:05:00,67.9,62.5,30.03,ESE,105,0.0,0.0,83,0.00,,---,0.00,VWS V14.01,2013-08-30 02:05:00,
2013-08-29 22:10:00,67.8,62.5,30.03,ESE,105,0.0,0.0,83,0.00,,---,0.00,VWS V14.01,2013-08-30 02:10:00,
2013-08-29 22:15:00,67.6,62.3,30.03,ESE,105,0.0,0.0,83,0.00,,---,0.00,VWS V14.01,2013-08-30 02:15:00,
2013-08-29 22:20:00,67.4,62.1,30.03,SE,130,0.0,1.0,83,0.00,,---,0.00,VWS V14.01,2013-08-30 02:20:00,
2013-08-29 22:25:00,67.3,62.0,30.03,SE,130,0.0,0.0,83,0.00,,---,0.00,VWS V14.01,2013-08-30 02:25:00,
2013-08-29 22:30:00,67.1,61.8,30.03,SE,130,0.0,0.0,83,0.00,,---,0.00,VWS V14.01,2013-08-30 02:30:00,
2013-08-29 22:35:00,66.9,61.6,30.03,SE,130,0.0,0.0,83,0.00,,---,0.00,VWS V14.01,2013-08-30 02:35:00,
2013-08-29 22:40:00,66.9,61.6,30.03,North,355,0.0,0.0,83,0.00,,---,0.00,VWS V14.01,2013-08-30 02:40:00,
2013-08-29 22:46:00,66.8,61.8,30.03,North,355,0.0,0.0,84,0.00,,---,0.00,VWS V14.01,2013-08-30 02:46:00,
2013-08-29 22:51:00,66.8,61.8,30.03,East,97,0.0,0.0,84,0.00,,---,0.00,VWS V14.01,2013-08-30 02:51:00,
2013-08-29 22:57:00,66.6,61.6,30.03,East,96,0.0,0.0,84,0.00,,---,0.00,VWS V14.01,2013-08-30 02:57:00,
2013-08-29 23:02:00,66.6,61.6,30.03,East,93,0.0,0.0,84,0.00,,---,0.00,VWS V14.01,2013-08-30 03:02:00,
2013-08-29 23:07:00,66.4,61.4,30.03,SSE,158,0.0,0.0,84,0.00,,---,0.00,VWS V14.01,2013-08-30 03:07:00,
2013-08-29 23:12:00,66.3,61.3,30.03,SSE,155,0.0,0.0,84,0.00,,---,0.00,VWS V14.01,2013-08-30 03:12:00,
2013-08-29 23:17:00,66.3,61.3,30.03,SSE,155,0.0,0.0,84,0.00,,---,0.00,VWS V14.01,2013-08-30 03:17:00,
2013-08-29 23:22:00,66.1,61.1,30.03,SSE,155,0.0,0.0,84,0.00,,---,0.00,VWS V14.01,2013-08-30 03:22:00,
2013-08-29 23:27:00,66.1,61.1,30.02,SSE,155,0.0,0.0,84,0.00,,---,0.00,VWS V14.01,2013-08-30 03:27:00,
2013-08-29 23:32:00,66.1,61.5,30.02,SSE,155,0.0,0.0,85,0.00,,---,0.00,VWS V14.01,2013-08-30 03:32:00,
2013-08-29 23:38:00,66.1,61.5,30.02,SSE,155,0.0,0.0,85,0.00,,---,0.00,VWS V14.01,2013-08-30 03:38:00,
2013-08-29 23:43:00,66.0,61.4,30.02,SSE,155,0.0,0.0,85,0.00,,---,0.00,VWS V14.01,2013-08-30 03:43:00,
2013-08-29 23:48:00,66.0,61.4,30.02,SSE,155,0.0,0.0,85,0.00,,---,0.00,VWS V14.01,2013-08-30 03:48:00,
2013-08-29 23:53:00,66.0,61.4,30.02,SSE,155,0.0,0.0,85,0.00,,---,0.00,VWS V14.01,2013-08-30 03:53:00,
2013-08-29 23:59:00,65.8,61.2,30.02,SSE,155,0.0,0.0,85,0.00,,---,0.00,VWS V14.01,2013-08-30 03:59:00,